Terminal Aerodrome Forecast
Issued by NWS Charleston, WV

Current Version | Previous Version | Text Only | Print | Product List | Glossary Off
Versions: 1 2 3 4 5 6 7 8 9 10 11 12 13 14 15 16 17 18 19 20 21 22 23 24 25

000
FTUS41 KRLX 241100
TAFEKN
TAF
KEKN 241136Z 2412/2512 34004KT 5SM -SHRA BR OVC004
      TEMPO 2412/2414 3SM -SHRA BR
     FM241500 32004KT 6SM -SHRA BR OVC018
     FM241900 32007KT P6SM BKN025
     FM242300 32005KT P6SM BKN035
     FM250400 00000KT 5SM BR SCT035
     FM250700 00000KT 1/2SM FG BKN001=

USA.gov is the U.S. government's official web portal to all federal, state and local government web resources and services.